Time;durP1;ratioP1;P1;durP2;ratioP2;P2;SDS_P1;SDS_P2;PMS_P1;PMS_P2;Temp;Humidity;BMP_temperature;BMP_pressure;BME280_temperature;BME280_humidity;BME280_pressure;Samples;Min_cycle;Max_cycle;Signal;HPM_P1;HPM_P2
2023/06/19 00:01:41;;;;;;;8.30;6.15;;;;;;;21.65;60.13;100737.84;5071213;23;20057;-60
2023/06/19 00:04:06;;;;;;;6.18;5.57;;;;;;;21.61;61.84;100742.38;4997629;23;20068;-60
2023/06/19 00:06:31;;;;;;;6.22;5.63;;;;;;;21.59;60.35;100746.81;5060589;23;20065;-61
2023/06/19 00:11:29;;;;;;;7.63;5.88;;;;;;;21.55;60.95;100750.44;4942091;23;20053;-61
2023/06/19 00:13:54;;;;;;;5.97;5.38;;;;;;;21.50;62.29;100754.97;4944547;23;20103;-60
2023/06/19 00:16:20;;;;;;;6.78;6.00;;;;;;;21.43;62.28;100767.47;4981186;23;20579;-61
2023/06/19 00:18:46;;;;;;;6.47;5.88;;;;;;;21.40;62.32;100770.22;4963908;23;20052;-60
2023/06/19 00:21:12;;;;;;;6.47;5.72;;;;;;;21.39;61.93;100772.91;5254173;23;20475;-60
2023/06/19 00:23:37;;;;;;;7.20;6.50;;;;;;;21.30;63.29;100780.13;5125383;23;20794;-61
2023/06/19 00:28:39;;;;;;;6.38;5.75;;;;;;;21.28;62.28;100775.81;4988962;23;20119;-60
2023/06/19 00:31:06;;;;;;;5.93;5.32;;;;;;;21.27;62.53;100789.94;5014646;23;20057;-61
2023/06/19 00:33:32;;;;;;;6.45;5.72;;;;;;;21.24;61.48;100788.22;4982543;23;20679;-60
2023/06/19 00:35:57;;;;;;;6.28;5.68;;;;;;;21.21;62.46;100790.94;5173828;23;20024;-60
2023/06/19 00:38:23;;;;;;;6.47;5.88;;;;;;;21.18;63.35;100798.97;5033847;23;20057;-60
2023/06/19 00:40:48;;;;;;;6.30;5.70;;;;;;;21.10;63.37;100798.25;5137372;23;20414;-61
2023/06/19 00:45:46;;;;;;;6.25;5.65;;;;;;;21.14;61.47;100799.94;4844904;29;20417;-60
2023/06/19 00:48:11;;;;;;;6.82;5.68;;;;;;;21.13;63.06;100804.38;5135662;23;20039;-61
2023/06/19 00:50:37;;;;;;;7.47;5.88;;;;;;;21.05;63.53;100806.28;5042876;23;20061;-61
2023/06/19 00:53:04;;;;;;;6.68;5.97;;;;;;;21.04;62.65;100814.28;4849558;29;20393;-61
2023/06/19 00:55:30;;;;;;;6.57;5.82;;;;;;;20.96;63.91;100803.84;5010631;23;20628;-61
2023/06/19 00:57:56;;;;;;;5.68;5.18;;;;;;;20.88;63.97;100811.91;5035916;23;20044;-61
2023/06/19 01:00:21;;;;;;;6.32;5.72;;;;;;;20.81;64.02;100812.94;4866334;29;20408;-61
2023/06/19 01:02:47;;;;;;;6.18;5.57;;;;;;;20.74;65.21;100809.56;5028621;23;20054;-61
2023/06/19 01:05:13;;;;;;;5.60;5.10;;;;;;;20.70;65.26;100815.81;5070605;23;20028;-61
2023/06/19 01:07:58;;;;;;;5.55;4.90;;;;;;;20.66;64.57;100814.97;5102515;23;20445;-61
2023/06/19 01:13:09;;;;;;;6.50;5.25;;;;;;;20.49;66.49;100811.75;5033886;23;20050;-61
2023/06/19 01:20:34;;;;;;;5.55;4.30;;;;;;;20.38;67.95;100822.53;4942944;23;20062;-61
2023/06/19 01:27:59;;;;;;;5.13;4.28;;;;;;;20.30;67.93;100825.28;4901943;23;20064;-64
2023/06/19 01:33:03;;;;;;;6.38;3.97;;;;;;;20.24;67.10;100836.00;5011299;23;1072753;-61
2023/06/19 01:35:32;;;;;;;5.10;4.15;;;;;;;20.21;68.74;100833.41;4992452;23;20110;-61
2023/06/19 01:37:59;;;;;;;4.85;3.70;;;;;;;20.12;69.75;100833.56;5148475;23;20056;-61
2023/06/19 01:40:25;;;;;;;4.45;3.45;;;;;;;20.14;69.45;100837.91;4863376;29;20142;-61
2023/06/19 01:42:54;;;;;;;4.80;3.50;;;;;;;20.10;69.58;100843.28;4975224;23;20152;-61
2023/06/19 01:45:19;;;;;;;4.27;3.30;;;;;;;20.08;69.88;100840.66;4980845;23;20064;-60
2023/06/19 01:47:45;;;;;;;4.60;3.45;;;;;;;20.07;69.88;100843.31;4997890;23;20597;-60
2023/06/19 01:50:11;;;;;;;4.20;2.95;;;;;;;20.08;70.45;100851.25;5007490;23;20537;-60
2023/06/19 01:55:06;;;;;;;4.20;3.10;;;;;;;19.98;69.68;100857.56;4974014;23;20039;-60
2023/06/19 01:57:32;;;;;;;4.32;2.97;;;;;;;20.00;68.73;100857.53;4862146;29;20033;-64
2023/06/19 01:59:57;;;;;;;4.47;3.10;;;;;;;19.95;71.31;100853.19;4864859;29;20031;-64
2023/06/19 02:02:22;;;;;;;4.53;3.03;;;;;;;19.89;71.79;100863.88;4864046;29;20029;-64
2023/06/19 02:04:48;;;;;;;4.80;3.00;;;;;;;19.80;72.24;100864.03;4863563;29;20053;-64
2023/06/19 02:07:13;;;;;;;4.30;2.90;;;;;;;19.67;72.95;100862.38;5013281;23;20425;-61
2023/06/19 02:09:39;;;;;;;5.05;3.10;;;;;;;19.66;73.13;100861.53;5043860;23;20040;-61
2023/06/19 02:12:05;;;;;;;3.70;2.70;;;;;;;19.63;73.66;100862.44;4892767;23;20121;-60
2023/06/19 02:14:30;;;;;;;3.75;2.50;;;;;;;19.67;74.31;100879.16;5047349;23;20509;-61
2023/06/19 02:24:39;;;;;;;3.35;2.35;;;;;;;19.53;75.79;100863.47;4981368;23;20060;-61
2023/06/19 02:29:39;;;;;;;4.25;2.47;;;;;;;19.51;74.86;100880.22;4987403;23;20073;-64
2023/06/19 02:32:05;;;;;;;3.88;2.30;;;;;;;19.40;76.51;100875.09;4838557;29;20606;-64
2023/06/19 02:34:30;;;;;;;3.55;2.30;;;;;;;19.43;75.75;100869.75;5074505;23;20067;-61
2023/06/19 02:36:56;;;;;;;3.65;2.30;;;;;;;19.46;74.08;100875.00;5034225;23;20402;-61
2023/06/19 02:41:52;;;;;;;3.42;2.22;;;;;;;19.59;75.11;100873.06;5059258;23;20344;-61
2023/06/19 02:44:17;;;;;;;3.85;2.30;;;;;;;19.63;73.77;100878.28;4985218;23;20058;-61
2023/06/19 02:46:42;;;;;;;4.13;2.50;;;;;;;19.59;75.58;100865.16;5001136;23;20073;-61
2023/06/19 02:54:08;;;;;;;3.90;2.40;;;;;;;19.38;77.63;100869.81;5040619;23;20121;-61
2023/06/19 02:56:33;;;;;;;3.85;2.38;;;;;;;19.36;76.78;100876.00;4851366;29;20037;-61
2023/06/19 02:58:59;;;;;;;3.77;2.40;;;;;;;19.34;77.20;100875.19;5096540;23;20160;-61
2023/06/19 03:01:24;;;;;;;4.40;2.60;;;;;;;19.30;78.27;100890.16;5079282;23;20409;-60
2023/06/19 03:03:52;;;;;;;3.30;2.10;;;;;;;19.29;76.38;100878.75;5151496;23;20142;-61
2023/06/19 03:06:17;;;;;;;3.33;1.90;;;;;;;19.27;75.17;100880.50;5030646;23;20186;-61
2023/06/19 03:08:43;;;;;;;3.40;2.30;;;;;;;19.25;78.17;100890.22;4978223;23;20072;-60
2023/06/19 03:11:08;;;;;;;3.22;2.30;;;;;;;19.14;79.98;100892.13;5210512;23;20153;-61
2023/06/19 03:16:03;;;;;;;;;;;;;;;19.13;77.46;100894.78;5037675;23;20109;-60
2023/06/19 03:23:29;;;;;;;4.07;2.70;;;;;;;18.97;80.58;100902.84;4974204;23;20487;-60
2023/06/19 03:25:54;;;;;;;3.40;2.45;;;;;;;18.90;79.57;100912.63;4849370;29;20098;-60
2023/06/19 03:28:19;;;;;;;4.85;2.60;;;;;;;18.89;81.23;100897.66;4849405;29;20034;-64
2023/06/19 03:30:45;;;;;;;5.47;2.90;;;;;;;18.89;80.90;100904.72;5005525;23;20509;-61
2023/06/19 03:33:10;;;;;;;4.65;2.80;;;;;;;18.88;82.40;100903.81;4850137;29;20489;-61
2023/06/19 03:38:10;;;;;;;5.07;2.88;;;;;;;18.74;83.15;100905.69;5018247;23;20118;-61
2023/06/19 03:40:36;;;;;;;4.22;2.50;;;;;;;18.72;83.19;100902.19;4996485;23;20061;-61
2023/06/19 03:43:01;;;;;;;4.70;2.90;;;;;;;18.73;82.44;100911.88;4855024;29;20417;-61
2023/06/19 03:47:59;;;;;;;5.18;2.90;;;;;;;18.85;82.74;100918.78;5183050;23;20042;-61
2023/06/19 03:50:24;;;;;;;3.97;2.88;;;;;;;18.88;82.69;100926.72;4857602;29;20042;-61
2023/06/19 03:52:50;;;;;;;4.40;2.90;;;;;;;18.83;82.96;100932.00;4961744;23;20053;-61
2023/06/19 03:55:15;;;;;;;4.68;2.83;;;;;;;18.81;82.56;100933.78;5208700;23;20058;-61
2023/06/19 03:57:40;;;;;;;4.40;3.10;;;;;;;18.82;84.04;100935.53;5042272;23;20050;-61
2023/06/19 04:02:40;;;;;;;3.85;2.92;;;;;;;18.86;82.63;100941.69;4962353;23;20619;-61
2023/06/19 04:07:40;;;;;;;4.43;2.90;;;;;;;18.88;84.61;100950.47;5159140;23;21079;-61
2023/06/19 04:10:06;;;;;;;5.75;3.13;;;;;;;18.88;84.78;100946.06;5137697;23;20049;-61
2023/06/19 04:12:31;;;;;;;4.95;3.20;;;;;;;18.86;84.77;100947.84;4976475;23;20056;-61
2023/06/19 04:14:56;;;;;;;5.03;3.38;;;;;;;18.86;85.06;100957.53;4930836;23;20029;-61
2023/06/19 04:17:21;;;;;;;5.97;3.30;;;;;;;18.89;83.81;100962.81;5117364;23;20046;-61
2023/06/19 04:19:47;;;;;;;3.90;3.17;;;;;;;18.91;84.78;100966.28;4978738;23;20467;-61
2023/06/19 04:24:42;;;;;;;4.20;3.45;;;;;;;18.98;84.48;100975.91;5143102;23;20132;-62
2023/06/19 04:27:10;;;;;;;4.45;3.28;;;;;;;18.92;85.50;100963.63;4997991;23;20517;-61
2023/06/19 04:29:35;;;;;;;4.45;3.50;;;;;;;18.97;85.72;100978.56;5033673;23;20604;-61
2023/06/19 04:37:07;;;;;;;5.10;3.60;;;;;;;19.06;84.49;100981.09;4826152;27;20074;-61
2023/06/19 04:39:33;;;;;;;4.40;3.85;;;;;;;19.00;86.71;100986.47;4945829;23;20064;-61
2023/06/19 04:42:00;;;;;;;4.53;3.70;;;;;;;19.03;86.01;100986.44;4990743;23;20057;-61
2023/06/19 04:47:00;;;;;;;5.47;3.85;;;;;;;18.96;85.88;100987.38;4979707;23;21136;-61
2023/06/19 04:49:25;;;;;;;6.78;3.80;;;;;;;18.97;87.22;100994.41;5268464;23;20049;-62
2023/06/19 04:54:22;;;;;;;5.22;3.75;;;;;;;18.99;86.58;101000.53;4971764;23;20090;-61
2023/06/19 04:56:47;;;;;;;8.45;4.50;;;;;;;19.02;87.66;100995.25;4851961;29;20029;-61
2023/06/19 04:59:12;;;;;;;6.32;3.42;;;;;;;19.09;84.31;100989.03;5149220;23;20387;-61
2023/06/19 05:04:08;;;;;;;5.05;4.32;;;;;;;19.19;86.94;100997.72;5044987;23;20057;-61
2023/06/19 05:09:29;;;;;;;4.63;4.10;;;;;;;19.16;87.65;100995.13;5054488;23;20130;31
2023/06/19 05:14:25;;;;;;;6.25;4.65;;;;;;;19.21;87.31;101001.25;5007409;23;20649;-61
2023/06/19 05:16:51;;;;;;;5.43;3.95;;;;;;;19.25;86.54;101000.31;4968630;23;20054;-64
2023/06/19 05:19:16;;;;;;;6.05;3.95;;;;;;;19.31;86.02;101000.25;5138481;23;20040;-64
2023/06/19 05:21:41;;;;;;;4.88;4.10;;;;;;;19.34;85.77;101000.22;5064678;23;20152;-61
2023/06/19 05:24:07;;;;;;;4.65;4.10;;;;;;;19.33;86.50;101013.44;5026318;23;20053;-62
2023/06/19 05:26:32;;;;;;;6.07;4.20;;;;;;;19.31;86.55;101016.09;5220470;23;21001;-62
2023/06/19 05:28:57;;;;;;;5.63;4.50;;;;;;;19.29;87.08;101018.78;4987677;23;20057;-61
2023/06/19 05:31:22;;;;;;;5.18;4.18;;;;;;;19.33;86.14;101021.38;4971305;23;20069;-61
2023/06/19 05:36:23;;;;;;;6.38;4.47;;;;;;;19.44;87.12;101016.88;4940504;23;20054;-61
2023/06/19 05:38:49;;;;;;;6.07;4.60;;;;;;;19.48;86.30;101017.69;5133645;23;20065;-61
2023/06/19 05:41:15;;;;;;;6.25;4.28;;;;;;;19.47;84.59;101019.47;4837280;29;20034;-61
2023/06/19 05:43:41;;;;;;;5.20;4.43;;;;;;;19.51;85.38;101025.59;4837732;29;20025;-61
2023/06/19 05:46:06;;;;;;;6.13;4.30;;;;;;;19.52;85.15;101027.34;4838807;29;20689;-61
2023/06/19 05:48:32;;;;;;;5.85;4.68;;;;;;;19.47;86.30;101030.03;5075400;23;20032;-61
2023/06/19 05:50:57;;;;;;;6.15;4.75;;;;;;;19.54;84.45;101030.88;4851197;29;20109;-62
2023/06/19 05:53:22;;;;;;;5.30;4.80;;;;;;;19.47;86.72;101022.09;4923049;23;20053;-61
2023/06/19 05:55:48;;;;;;;6.43;4.88;;;;;;;19.45;86.96;101035.34;4926599;23;20072;-61
2023/06/19 05:58:13;;;;;;;5.50;4.95;;;;;;;19.48;86.35;101031.81;4941315;23;20026;-62
2023/06/19 06:00:38;;;;;;;6.00;5.40;;;;;;;19.54;85.82;101026.44;4923281;23;20057;-62
2023/06/19 06:03:04;;;;;;;5.68;4.90;;;;;;;19.61;85.68;101030.78;5220139;23;20024;-61
2023/06/19 06:05:29;;;;;;;5.70;4.82;;;;;;;19.56;84.76;101029.94;4856541;29;20462;-61
2023/06/19 06:07:55;;;;;;;5.90;5.30;;;;;;;19.56;85.74;101037.88;5043341;23;20028;-62
2023/06/19 06:10:22;;;;;;;6.00;5.40;;;;;;;19.61;84.91;101037.81;5079522;23;20092;-61
2023/06/19 06:12:48;;;;;;;6.00;5.40;;;;;;;19.63;83.82;101036.03;5142876;23;20069;-63
2023/06/19 06:15:13;;;;;;;5.72;5.10;;;;;;;19.68;84.14;101050.06;5025315;23;20061;-61
2023/06/19 06:17:39;;;;;;;6.30;5.47;;;;;;;19.71;82.42;101051.81;4857609;29;20028;-64
2023/06/19 06:20:11;;;;;;;6.40;5.53;;;;;;;19.73;81.77;101066.78;4944269;23;20011;-61
2023/06/19 06:22:31;;;;;;;7.38;5.72;;;;;;;19.73;80.56;101072.06;4939273;23;20060;-61
2023/06/19 06:24:56;;;;;;;7.00;6.30;;;;;;;19.78;80.16;101066.72;4852691;29;20033;-61
2023/06/19 06:27:21;;;;;;;6.93;6.32;;;;;;;19.74;80.82;101067.63;4993219;23;1102626;-61
2023/06/19 06:29:54;;;;;;;7.43;6.53;;;;;;;19.78;81.32;101070.28;5066175;23;21471;31
2023/06/19 06:34:52;;;;;;;7.80;7.00;;;;;;;19.97;78.32;101073.59;5006429;23;20125;-61
2023/06/19 06:37:22;;;;;;;8.25;7.45;;;;;;;20.07;77.96;101084.91;5013130;23;21152;-61
2023/06/19 06:39:44;;;;;;;8.07;7.28;;;;;;;20.18;76.82;101090.09;5185580;23;20085;-61
2023/06/19 06:42:09;;;;;;;9.43;7.63;;;;;;;20.16;75.82;101091.91;5325976;23;20036;-61
2023/06/19 06:44:35;;;;;;;8.52;7.70;;;;;;;20.04;77.66;101095.53;4933234;23;20141;-61
2023/06/19 06:49:36;;;;;;;7.68;6.88;;;;;;;20.23;77.57;101096.19;4938828;23;20112;-61
2023/06/19 06:52:02;;;;;;;7.65;6.93;;;;;;;20.33;76.46;101097.84;5005780;23;20535;-61
2023/06/19 06:54:27;;;;;;;7.57;6.80;;;;;;;20.46;76.31;101108.25;4963616;23;20096;-61
2023/06/19 06:56:56;;;;;;;7.45;6.70;;;;;;;20.65;74.71;101104.47;5023066;23;20110;-62
2023/06/19 07:01:56;;;;;;;8.00;7.20;;;;;;;20.56;73.92;101115.19;4959086;23;20065;-61
2023/06/19 07:04:22;;;;;;;8.77;7.88;;;;;;;20.52;72.61;101104.66;4999599;23;20147;-61
2023/06/19 07:06:47;;;;;;;8.35;7.55;;;;;;;20.51;73.34;101109.09;4921456;23;20057;-61
2023/06/19 07:11:42;;;;;;;8.73;7.93;;;;;;;20.54;72.28;101116.09;4946457;23;20130;-61
2023/06/19 07:16:33;;;;;;;8.45;7.72;;;;;;;20.57;72.90;101124.00;5104670;23;20064;-61
2023/06/19 07:18:58;;;;;;;9.45;8.55;;;;;;;20.71;72.28;101123.84;5015408;23;20059;-61
2023/06/19 07:21:24;;;;;;;9.50;8.60;;;;;;;20.83;71.46;101134.28;4838126;29;20032;-61
2023/06/19 07:23:49;;;;;;;9.23;8.32;;;;;;;20.78;71.42;101131.69;4839111;29;20046;-61
2023/06/19 07:26:15;;;;;;;9.38;8.48;;;;;;;20.88;71.58;101137.72;4842029;29;20043;-61
2023/06/19 07:28:41;;;;;;;8.75;7.78;;;;;;;20.97;70.47;101137.59;4954986;23;20058;-62
2023/06/19 07:31:06;;;;;;;8.90;8.00;;;;;;;20.84;71.01;101138.66;4903255;23;20068;-62
2023/06/19 07:33:32;;;;;;;8.57;7.72;;;;;;;20.93;70.12;101141.19;4983308;23;20027;-62
2023/06/19 07:38:32;;;;;;;8.82;7.93;;;;;;;21.03;71.02;101141.94;5135686;23;20035;-62
2023/06/19 07:40:57;;;;;;;8.10;7.40;;;;;;;21.15;70.69;101154.13;5080028;23;20510;-62
2023/06/19 07:43:23;;;;;;;7.47;6.78;;;;;;;21.23;69.86;101154.84;4853138;29;20126;-62
2023/06/19 07:45:49;;;;;;;8.40;7.32;;;;;;;21.37;68.46;101146.69;4997347;23;20117;-62
2023/06/19 07:50:43;;;;;;;7.40;6.60;;;;;;;21.47;68.16;101150.94;4976350;23;20065;-62
2023/06/19 07:53:09;;;;;;;7.40;6.53;;;;;;;21.51;70.60;101147.38;4982958;23;20050;-62
2023/06/19 07:55:35;;;;;;;7.40;6.63;;;;;;;21.65;69.65;101147.13;5127390;23;20065;-62
2023/06/19 07:58:00;;;;;;;7.40;6.63;;;;;;;21.68;68.36;101146.19;5034882;23;21030;-61
2023/06/19 08:02:55;;;;;;;6.65;5.95;;;;;;;21.64;67.78;101155.13;4834686;29;20110;-62
2023/06/19 08:05:21;;;;;;;6.32;5.72;;;;;;;21.59;67.96;101146.34;4834112;29;20033;-62
2023/06/19 08:07:46;;;;;;;6.80;6.10;;;;;;;21.58;69.37;101150.78;5008083;23;20102;-62
2023/06/19 08:10:12;;;;;;;6.97;6.22;;;;;;;21.76;68.24;101151.38;5060732;23;20024;-62
2023/06/19 08:12:37;;;;;;;7.22;6.25;;;;;;;21.79;68.90;101159.28;5033320;23;20516;-61
2023/06/19 08:15:02;;;;;;;6.90;6.20;;;;;;;21.71;67.45;101149.66;5231992;23;20024;-61
2023/06/19 08:17:28;;;;;;;6.78;5.93;;;;;;;21.79;68.35;101161.94;5044724;23;20421;-61
2023/06/19 08:19:53;;;;;;;7.00;6.13;;;;;;;21.94;68.33;101153.69;4925072;23;20013;-61
2023/06/19 08:22:18;;;;;;;7.20;6.50;;;;;;;22.19;67.44;101164.69;4925782;23;20513;-61
2023/06/19 08:24:44;;;;;;;6.72;6.07;;;;;;;22.23;65.59;101158.44;4831546;29;20033;-61
2023/06/19 08:27:09;;;;;;;7.40;6.60;;;;;;;22.26;64.24;101152.19;4981557;23;20054;-61
2023/06/19 08:34:48;;;;;;;8.00;6.90;;;;;;;22.17;66.12;101163.88;4937151;23;20062;-61
2023/06/19 08:37:13;;;;;;;7.68;6.30;;;;;;;22.20;66.32;101154.94;5156292;23;20058;-60
2023/06/19 08:39:39;;;;;;;7.00;6.30;;;;;;;22.27;65.66;101161.88;4924668;23;20144;-61
2023/06/19 08:42:06;;;;;;;6.88;6.18;;;;;;;22.37;65.12;101168.78;5002432;23;20521;-61
2023/06/19 08:44:34;;;;;;;7.22;6.47;;;;;;;22.38;64.64;101177.66;4924677;23;20049;-60
2023/06/19 08:46:59;;;;;;;7.22;6.53;;;;;;;22.48;63.66;101180.97;5012657;23;20206;-60
2023/06/19 08:51:53;;;;;;;7.45;6.75;;;;;;;22.31;64.13;101183.94;4897966;23;20442;-60
2023/06/19 08:54:19;;;;;;;7.13;6.43;;;;;;;22.46;66.62;101180.13;5161895;23;20057;-61
2023/06/19 08:56:47;;;;;;;7.13;6.43;;;;;;;22.55;65.14;101185.25;5029827;23;20362;-60
2023/06/19 08:59:15;;;;;;;8.37;7.57;;;;;;;22.74;64.92;101193.72;4956142;23;20400;-61
2023/06/19 09:01:51;;;;;;;7.78;7.07;;;;;;;22.88;64.16;101201.38;4969064;23;20061;-61
2023/06/19 09:06:58;;;;;;;9.20;7.18;;;;;;;22.93;62.38;101207.47;5119436;23;20065;-60
2023/06/19 09:09:25;;;;;;;7.53;6.73;;;;;;;23.09;60.67;101205.34;4857926;29;20033;-61
2023/06/19 09:17:10;;;;;;;8.65;6.93;;;;;;;23.35;61.23;101202.09;4981748;23;20068;-61
2023/06/19 09:19:35;;;;;;;9.23;7.28;;;;;;;23.22;63.31;101208.63;4958900;23;20069;-62
2023/06/19 09:22:03;;;;;;;7.40;6.70;;;;;;;23.26;61.77;101211.19;4974999;23;20073;-61
2023/06/19 09:24:38;;;;;;;7.65;6.40;;;;;;;23.29;62.38;101222.63;5166854;23;20685;-62
2023/06/19 09:27:13;;;;;;;7.70;5.88;;;;;;;23.47;61.99;101222.22;5170041;23;20061;-61
2023/06/19 09:29:40;;;;;;;7.57;6.13;;;;;;;23.53;59.47;101224.72;4863903;29;20456;-64
2023/06/19 09:37:07;;;;;;;6.80;6.20;;;;;;;23.84;59.63;101231.06;5020547;23;20061;-61
2023/06/19 09:39:36;;;;;;;7.75;5.88;;;;;;;23.98;57.29;101233.41;5154254;23;20073;-61
2023/06/19 09:42:03;;;;;;;7.95;6.22;;;;;;;24.09;57.29;101226.00;5179900;23;20990;-60
2023/06/19 09:44:31;;;;;;;16.98;6.63;;;;;;;24.03;57.52;101226.16;4992699;23;20460;-61
2023/06/19 09:46:59;;;;;;;7.32;6.63;;;;;;;24.02;58.60;101230.63;4838182;29;20094;-61
2023/06/19 09:49:28;;;;;;;6.68;5.70;;;;;;;24.17;56.36;101239.97;5004445;23;20061;-61
2023/06/19 09:57:04;;;;;;;7.15;6.45;;;;;;;24.32;55.04;101230.72;5037643;23;20069;-61
2023/06/19 09:59:29;;;;;;;7.70;6.75;;;;;;;24.04;55.47;101233.25;4934991;23;20110;-61
2023/06/19 10:01:55;;;;;;;7.50;6.80;;;;;;;24.15;56.04;101233.84;5094487;23;20065;-62
2023/06/19 10:04:20;;;;;;;8.18;6.38;;;;;;;24.23;54.55;101238.94;4951053;23;20137;-60
2023/06/19 10:06:47;;;;;;;7.25;6.55;;;;;;;24.16;55.71;101232.91;4854659;29;20033;-61
2023/06/19 10:14:20;;;;;;;6.38;5.65;;;;;;;24.33;55.73;101229.78;5099090;23;20941;-62
2023/06/19 10:19:52;;;;;;;7.97;6.60;;;;;;;24.83;55.86;101231.94;5152885;23;20024;31
2023/06/19 10:22:31;;;;;;;8.10;7.22;;;;;;;24.89;53.93;101233.56;5240295;23;20050;31
2023/06/19 10:24:56;;;;;;;8.13;6.45;;;;;;;24.80;53.81;101230.25;5273544;23;20057;-62
2023/06/19 10:27:25;;;;;;;7.53;5.85;;;;;;;24.64;54.54;101228.97;4976319;23;20054;-62
2023/06/19 10:32:23;;;;;;;6.80;6.13;;;;;;;24.69;54.35;101237.69;4978178;23;21169;-60
2023/06/19 10:34:51;;;;;;;6.93;6.15;;;;;;;24.86;52.84;101252.31;5161933;23;20057;-60
2023/06/19 10:37:17;;;;;;;6.93;6.30;;;;;;;24.93;52.84;101241.41;5206510;23;20816;-61
2023/06/19 10:39:43;;;;;;;7.55;6.57;;;;;;;24.97;53.52;101247.56;5072161;23;20058;-64
2023/06/19 10:42:24;;;;;;;6.63;5.85;;;;;;;25.10;53.06;101237.34;4843914;29;20056;-63
2023/06/19 10:47:25;;;;;;;6.85;5.55;;;;;;;25.26;53.65;101241.31;5103638;23;20057;-62
2023/06/19 10:49:51;;;;;;;6.32;5.72;;;;;;;25.27;50.06;101244.84;4970184;23;20069;-62
2023/06/19 10:52:18;;;;;;;7.10;5.80;;;;;;;25.11;51.50;101245.31;4920084;23;20032;-61
2023/06/19 10:54:43;;;;;;;6.30;5.70;;;;;;;25.08;52.55;101234.72;5017585;23;1076592;-63
2023/06/19 10:57:09;;;;;;;6.82;5.75;;;;;;;24.98;51.79;101231.50;5026309;23;20056;-63
2023/06/19 10:59:34;;;;;;;6.80;5.40;;;;;;;24.89;52.31;101222.91;4922977;23;20094;-63
2023/06/19 11:02:00;;;;;;;6.00;5.40;;;;;;;24.79;50.14;101231.16;4988484;23;20833;-61
2023/06/19 11:04:25;;;;;;;5.55;4.75;;;;;;;24.61;52.04;101234.38;5148398;23;20173;-62
2023/06/19 11:06:50;;;;;;;7.03;4.70;;;;;;;24.59;52.36;101225.50;4979690;23;20420;-63
2023/06/19 11:14:30;;;;;;;7.10;5.60;;;;;;;24.74;50.44;101225.09;5086468;23;20049;-61
2023/06/19 11:16:55;;;;;;;7.07;4.93;;;;;;;24.93;51.55;101211.22;5022605;23;20117;-60
2023/06/19 11:19:23;;;;;;;5.90;5.30;;;;;;;25.11;51.49;101226.63;5012349;23;20061;-61
2023/06/19 11:21:50;;;;;;;6.30;5.70;;;;;;;25.34;50.97;101217.94;5199919;23;20053;-64
2023/06/19 11:24:16;;;;;;;6.28;5.53;;;;;;;25.52;50.45;101219.16;4866755;29;20800;-64
2023/06/19 11:26:49;;;;;;;6.78;5.75;;;;;;;25.71;49.15;101218.53;4999100;23;20045;-64
2023/06/19 11:29:18;;;;;;;7.55;5.60;;;;;;;25.84;50.13;101221.69;5188710;23;20057;-61
2023/06/19 11:34:17;;;;;;;7.57;5.35;;;;;;;26.08;48.61;101222.63;5071749;23;20064;-63
2023/06/19 11:36:43;;;;;;;6.15;5.55;;;;;;;26.21;48.02;101223.06;4859139;29;20040;-63
2023/06/19 11:39:11;;;;;;;7.13;5.57;;;;;;;26.33;47.91;101221.75;4945480;23;20007;-62
2023/06/19 11:41:36;;;;;;;7.38;5.90;;;;;;;26.51;47.81;101215.72;5157859;23;20131;-62
2023/06/19 11:44:06;;;;;;;7.28;5.90;;;;;;;26.54;47.12;101209.41;4900208;23;20190;-63
2023/06/19 11:46:33;;;;;;;7.13;5.20;;;;;;;26.57;46.68;101209.28;5005649;23;20065;-64
2023/06/19 11:49:15;;;;;;;5.82;5.22;;;;;;;26.70;44.89;101215.06;5003523;23;20071;-64
2023/06/19 11:54:17;;;;;;;6.00;5.40;;;;;;;26.70;45.66;101207.91;5044622;23;20131;-62
2023/06/19 12:04:18;;;;;;;6.43;5.03;;;;;;;26.92;45.04;101195.53;4991536;23;20061;-63
2023/06/19 12:11:53;;;;;;;5.18;4.45;;;;;;;27.09;44.47;101200.22;4996446;23;20054;-62
2023/06/19 12:14:20;;;;;;;6.00;4.82;;;;;;;27.15;43.36;101199.97;4831120;29;20022;-62
2023/06/19 12:19:11;;;;;;;5.53;4.40;;;;;;;27.27;42.12;101203.94;5176297;23;20034;-62
2023/06/19 12:21:36;;;;;;;5.50;4.72;;;;;;;27.27;43.54;101209.28;4933294;23;20054;-62
2023/06/19 12:26:27;;;;;;;7.25;4.78;;;;;;;27.23;43.51;101225.47;5250572;23;20032;-63
2023/06/19 12:28:52;;;;;;;6.43;4.30;;;;;;;27.34;41.71;101213.50;4927446;23;20049;-64
2023/06/19 12:31:18;;;;;;;5.05;4.00;;;;;;;27.33;39.54;101217.06;5090638;23;20052;-61
2023/06/19 12:36:18;;;;;;;5.43;4.28;;;;;;;27.31;42.00;101208.25;5033260;23;20100;-62
2023/06/19 12:38:43;;;;;;;6.70;4.75;;;;;;;27.45;40.98;101207.72;5021943;23;20064;-63
2023/06/19 12:45:59;;;;;;;5.47;4.78;;;;;;;27.56;39.73;101205.44;4989236;23;20529;-62
2023/06/19 12:53:26;;;;;;;7.57;5.55;;;;;;;27.48;42.14;101197.75;5065342;23;20057;-61
2023/06/19 12:55:51;;;;;;;6.35;5.25;;;;;;;27.58;41.19;101200.91;5029213;23;20885;-61
2023/06/19 12:58:17;;;;;;;6.32;4.90;;;;;;;27.50;41.72;101198.53;4995259;23;20049;-60
2023/06/19 13:00:42;;;;;;;5.73;5.07;;;;;;;27.72;41.87;101192.28;5001976;23;20065;-61
2023/06/19 13:03:07;;;;;;;5.03;4.53;;;;;;;27.77;42.32;101193.81;5054879;23;20332;-61
2023/06/19 13:05:33;;;;;;;6.20;4.80;;;;;;;27.85;40.52;101189.94;4851578;29;20304;-60
2023/06/19 13:07:58;;;;;;;6.28;4.65;;;;;;;27.91;42.24;101193.25;5027272;23;20524;-60
2023/06/19 13:10:23;;;;;;;5.10;4.43;;;;;;;28.06;39.29;101201.56;5025207;23;20068;-60
2023/06/19 13:12:48;;;;;;;6.88;5.40;;;;;;;28.05;39.22;101197.16;4972103;23;21248;-60
2023/06/19 13:15:14;;;;;;;5.80;5.30;;;;;;;28.37;40.68;101187.63;4968749;23;20105;-60
2023/06/19 13:17:39;;;;;;;5.90;5.25;;;;;;;28.51;40.33;101186.16;5021530;23;20531;-60
2023/06/19 13:20:05;;;;;;;5.63;5.03;;;;;;;28.58;40.53;101184.94;4852094;29;20037;-60
2023/06/19 13:22:31;;;;;;;8.88;5.43;;;;;;;28.65;40.07;101182.84;5027925;23;20545;-61
2023/06/19 13:24:56;;;;;;;6.07;4.75;;;;;;;28.70;39.01;101179.00;4859208;29;20041;-62
2023/06/19 13:27:22;;;;;;;5.38;4.88;;;;;;;28.59;38.20;101181.28;5287619;23;20027;-62
2023/06/19 13:29:47;;;;;;;6.25;5.50;;;;;;;28.69;39.88;101188.03;5076822;23;20088;-60
2023/06/19 13:32:12;;;;;;;7.80;5.57;;;;;;;28.75;41.52;101182.34;4857035;29;20025;-61
2023/06/19 13:34:37;;;;;;;5.70;5.20;;;;;;;28.75;40.48;101176.09;4971247;23;20814;-60
2023/06/19 13:37:04;;;;;;;6.00;5.40;;;;;;;28.75;39.38;101178.78;4971786;23;20326;-60
2023/06/19 13:39:30;;;;;;;5.85;4.97;;;;;;;28.73;40.44;101184.22;5024006;23;20917;-60
2023/06/19 13:41:55;;;;;;;5.35;4.53;;;;;;;28.64;38.05;101181.13;5182274;23;20065;-60
2023/06/19 13:46:50;;;;;;;7.45;5.10;;;;;;;28.83;39.71;101173.94;4953816;23;20069;-61
2023/06/19 13:49:15;;;;;;;5.50;4.60;;;;;;;28.92;39.00;101170.84;4855553;29;20033;-61
2023/06/19 13:54:13;;;;;;;7.55;4.70;;;;;;;28.81;37.58;101167.78;5021916;23;20599;-60
2023/06/19 13:56:39;;;;;;;5.10;4.60;;;;;;;28.66;38.51;101169.38;4942598;23;20123;-60
2023/06/19 14:01:41;;;;;;;5.35;4.43;;;;;;;28.67;37.53;101165.75;5023233;23;20090;-61
2023/06/19 14:04:06;;;;;;;5.55;4.25;;;;;;;28.69;36.73;101165.69;4863477;29;20123;-60
2023/06/19 14:11:39;;;;;;;6.13;4.10;;;;;;;28.52;36.97;101171.78;4814660;27;20461;-61
2023/06/19 14:14:04;;;;;;;4.90;4.10;;;;;;;28.42;38.12;101166.00;5011873;23;20128;-61
2023/06/19 14:19:05;;;;;;;4.85;4.22;;;;;;;28.40;39.71;101159.84;5257986;23;20065;-60
2023/06/19 14:24:00;;;;;;;5.50;4.47;;;;;;;28.76;38.61;101154.59;4931924;23;20541;-62
2023/06/19 14:26:25;;;;;;;4.80;4.30;;;;;;;28.81;37.66;101151.69;5175640;23;20061;-64
2023/06/19 14:28:55;;;;;;;4.90;4.22;;;;;;;28.85;36.89;101155.97;4935311;23;20045;-62
2023/06/19 14:31:20;;;;;;;5.55;4.50;;;;;;;28.81;36.79;101154.38;4857013;29;20036;-62
2023/06/19 14:33:45;;;;;;;5.97;4.50;;;;;;;28.82;37.67;101150.72;5027458;23;20083;-62
2023/06/19 14:38:46;;;;;;;5.90;4.72;;;;;;;28.88;37.62;101150.47;5221662;23;20291;-60
2023/06/19 14:41:11;;;;;;;5.47;4.40;;;;;;;28.80;36.06;101152.63;5155636;23;20120;-61
2023/06/19 14:43:36;;;;;;;4.88;4.15;;;;;;;28.68;37.37;101148.72;4852951;29;20381;-60